Data for 09/16/2005

Time Sea-Level Adjusted Pressure Absolute Pressure Temperature Relative Humidity Dew Point   
(mb) (inHg) (mb) (inHg) (C) (F) (%) (C) (F)
00:05 1016 30 845 24.95 16.1 60.9 29 -1.8 28.7
00:10 1016 30 845 24.95 15.8 60.4 30 -1.8 28.8
00:15 1016 30 845 24.95 15.4 59.7 32 -1.2 29.8
00:20 1016 30 845 24.95 14.9 58.7 34 -0.9 30.4
00:25 1016 30 845 24.95 14.3 57.8 35 -0.9 30.3
00:30 1016 30 845 24.95 15.3 59.6 30 -2 28.5
00:35 1016 30 845 24.95 15.4 59.8 31 -1.4 29.5
00:40 1016 30 845 24.95 15 59 33 -1.1 30.1
00:45 1016 30 845 24.95 14.6 58.4 34 -1.1 30.1
00:50 1016 30 845 24.95 14.5 58.2 34 -1.2 29.9
00:55 1016 30 845 24.95 14.6 58.3 33 -1.3 29.7
01:00 1016 30 845 24.95 14.7 58.4 33 -1.3 29.7
01:05 1016 30 845 24.95 14.8 58.6 32 -1.5 29.2
01:10 1016 30 845 24.95 15 59 32 -1.4 29.4
01:15 1016 30 845 24.95 15 59 33 -1.2 29.8
01:20 1016 30 845 24.95 15 58.9 31 -1.9 28.6
01:25 1016 30 845 24.95 15.1 59.1 32 -1.5 29.3
01:30 1016 30 845 24.95 15 58.9 34 -0.8 30.6
01:35 1016 30 845 24.95 14.5 58.1 36 -0.5 31.1
01:40 1016 30 845 24.95 14.5 58.1 33 -1.4 29.6
01:45 1016 30 845 24.95 14.6 58.3 32 -1.7 28.9
01:50 1016 30 845 24.95 14.7 58.5 33 -1.5 29.3
01:55 1016 30 845 24.95 14.4 58 33 -1.5 29.3
02:00 1016 30 845 24.95 14.4 58 32 -2 28.3
02:05 1016 30 845 24.95 14.8 58.6 31 -1.9 28.5
02:10 1016 30 845 24.95 14.7 58.4 32 -1.7 28.9
02:15 1016 30 845 24.95 14.3 57.7 33 -1.6 29.1
02:20 1016 30 845 24.95 13.7 56.7 34 -1.7 29
02:25 1016 30 845 24.95 13.4 56 35 -1.7 29
02:30 1016 30 845 24.95 13.3 56 34 -2.3 27.8
02:35 1016 30 845 24.95 13.8 56.8 33 -2 28.5
02:40 1016 30 845 24.95 13.7 56.6 35 -1.6 29.1
02:45 1016 30 845 24.95 13.3 55.9 36 -1.5 29.3
02:50 1016 30 845 24.95 13.4 56.1 36 -1.2 29.8
02:55 1016 30 845 24.95 12.9 55.3 36 -1.7 28.9
03:00 1016 30 845 24.95 13 55.3 41 0.1 32.2
03:05 1016 30 845 24.95 13.1 55.5 34 -2.4 27.7
03:10 1016 30 845 24.95 13 55.5 37 -1.4 29.4
03:15 1016 30 845 24.95 12.8 55 37 -1.6 29.1
03:20 1016 30 845 24.95 12.8 55.1 35 -2.3 27.9
03:25 1016 30 845 24.95 12.9 55.3 36 -1.6 29.1
03:30 1016 30 845 24.95 12.7 54.9 35 -2.2 28.1
03:35 1016 30 845 24.95 12.9 55.3 37 -1.2 29.8
03:40 1016 30 845 24.95 12.7 54.8 34 -2.6 27.3
03:45 1016 30 845 24.95 13.4 56.1 33 -2.5 27.5
03:50 1016 30 845 24.95 13.1 55.6 34 -2.4 27.7
03:55 1016 30 845 24.95 13.3 55.9 34 -2.2 28.1
04:00 1016 30 845 24.95 13.9 56.9 34 -1.5 29.3
04:05 1016 30 845 24.95 13.7 56.6 32 -2.8 26.9
04:10 1016 30 845 24.95 13.7 56.7 34 -1.7 28.9
04:15 1016 30 845 24.95 13.1 55.5 35 -2.1 28.3
04:20 1016 30 845 24.95 12.5 54.5 38 -1.2 29.8
04:25 1016 30 845 24.95 12 53.7 41 -0.6 30.9
04:30 1016 30 845 24.95 11.9 53.3 41 -1 30.3
04:35 1016 30 845 24.95 11.5 52.7 43 -0.6 30.9
04:40 1016 30 845 24.95 11.3 52.4 41 -1.6 29.2
04:45 1016 30 845 24.95 11.3 52.3 45 -0.1 31.9
04:50 1016 30 845 24.95 10.1 50.2 43 -1.8 28.8
04:55 1016 30 845 24.95 10 49.9 47 -0.8 30.6
05:00 1016 30 845 24.95 11 51.9 42 -1.4 29.5
05:05 1016 30 845 24.95 10.6 51.1 46 -0.5 31
05:10 1016 30 845 24.95 10.4 50.6 43 -1.7 28.9
05:15 1016 30 845 24.95 10.3 50.5 46 -0.8 30.6
05:20 1016 30 845 24.95 10.1 50.2 44 -1.5 29.4
05:25 1016 30 845 24.95 9.9 49.9 44 -1.8 28.8
05:30 1016 30 845 24.95 9.9 49.7 44 -1.9 28.6
05:35 1016 30 845 24.95 10.1 50.1 43 -1.8 28.8
05:40 1016 30 845 24.95 9.9 49.8 44 -1.7 28.9
05:45 1016 30 845 24.95 10.1 50.1 42 -2.3 27.9
05:50 1016 30 845 24.95 10.5 50.9 40 -2.6 27.4
05:55 1016 30 845 24.95 10.4 50.7 42 -2.1 28.3
06:00 1016 30 845 24.95 10.3 50.5 41 -2.4 27.6
06:05 1016 30 845 24.95 10.2 50.4 42 -2 28.4
06:10 1016 30 845 24.95 10.4 50.8 39 -2.9 26.7
06:15 1016 30 845 24.95 11.4 52.5 36 -3 26.5
06:20 1016 30 845 24.95 11.4 52.6 41 -1.3 29.7
06:25 1016 30 845 24.95 10.5 50.9 42 -1.9 28.5
06:30 1016 30 845 24.95 10.4 50.6 41 -2.3 27.9
06:35 1016 30 845 24.95 10 49.9 44 -1.5 29.2
06:40 1016 30 845 24.95 9.4 48.9 45 -1.9 28.5
06:45 1016 30 845 24.95 9.8 49.6 41 -2.7 27.2
06:50 1016 30 845 24.95 10.3 50.5 42 -2.2 28
06:55 1016 30 845 24.95 10.1 50.1 41 -2.5 27.5
07:00 1016 30 845 24.95 10.2 50.4 41 -2.3 27.9
07:05 1016 30 846 24.98 10 49.9 43 -2.1 28.2
07:10 1016 30 846 24.98 10 50 43 -2 28.4
07:15 1016 30 846 24.98 10.1 50.2 41 -2.6 27.3
07:20 1016 30 846 24.98 10.6 51.1 40 -2.5 27.5
07:25 1016 30 846 24.98 10.3 50.5 44 -1.4 29.5
07:30 1016 30 846 24.98 9.8 49.6 44 -1.8 28.8
07:35 1016 30 846 24.98 9.4 48.9 47 -1.2 29.9
07:40 1016 30 846 24.98 9.3 48.8 45 -2 28.4
07:45 1016 30 846 24.98 9.5 49 47 -1.4 29.6
07:50 1016 30 846 24.98 9.8 49.6 45 -1.6 29.2
07:55 1016 30 846 24.98 10 50 43 -2.1 28.2
08:00 1016 30 846 24.98 10.4 50.7 42 -1.9 28.6
08:05 1016 30 846 24.98 10.5 50.8 44 -1.2 29.9
08:10 1016 30 846 24.98 10.6 51.1 44 -1.2 29.8
08:15 1016 30 846 24.98 11 51.7 43 -1.1 30.1
08:20 1016 30 846 24.98 11.5 52.7 43 -0.6 30.9
08:25 1016 30 846 24.98 12.1 53.8 39 -1.3 29.6
08:30 1016 30 846 24.98 12.3 54.2 41 -0.5 31.1
08:35 1016 30 846 24.98 12.6 54.7 40 -0.5 31.1
08:40 1016 30 846 24.98 12.8 55.1 39 -0.9 30.4
08:45 1016 30 846 24.98 13.5 56.2 38 -0.6 30.9
08:50 1016 30 846 24.98 13.8 56.8 38 -0.1 31.8
08:55 1016 30 846 24.98 14.2 57.5 36 -0.5 31.1
09:00 1016 30 846 24.98 14.4 57.9 35 -0.6 30.9
09:05 1016 30 846 24.98 14.7 58.5 34 -0.9 30.3
09:10 1016 30 846 24.98 15 59 34 -0.5 31.1
09:15 1016 30 846 24.98 16 60.8 32 -0.6 30.9
09:20 1016 30 846 24.98 15.7 60.2 31 -1.3 29.6
09:25 1016 30 845 24.95 16.2 61.1 30 -1.2 29.9
09:30 1016 30 845 24.95 16.7 62 31 -0.6 30.9
09:35 1016 30 845 24.95 17.1 62.8 29 -1 30.3
09:40 1016 30 845 24.95 18 64.4 27 -1 30.2
09:45 1016 30 845 24.95 18.8 65.8 25 -1.6 29.2
09:50 1016 30 845 24.95 19.1 66.3 24 -1.6 29.1
09:55 1016 30 845 24.95 18.8 65.8 25 -1.4 29.4
10:00 1016 30 845 24.95 19 66.2 24 -1.7 28.9
10:05 1016 30 845 24.95 19.4 66.9 24 -1.6 29.2
10:10 1016 30 845 24.95 20.1 68.1 23 -1.4 29.4
10:15 1016 30 845 24.95 20.3 68.5 23 -1.3 29.7
10:20 1016 30 845 24.95 20.2 68.3 23 -1.2 29.8
10:25 1016 30 845 24.95 18.7 65.6 26 -1.3 29.6
10:30 1016 30 845 24.95 19.3 66.7 25 -1.1 30.1
10:35 1016 30 845 24.95 19.8 67.6 27 0.3 32.5
10:40 1016 30 845 24.95 19.6 67.2 28 0.5 33
10:45 1016 30 845 24.95 19.5 67.1 26 -0.2 31.6
10:50 1016 30 845 24.95 19.5 67.2 26 -0.1 31.9
10:55 1016 30 845 24.95 19.4 66.9 26 -0.4 31.2
11:00 1016 30 845 24.95 19.4 66.8 28 0.5 33
11:05 1016 30 845 24.95 19.7 67.4 26 -0.4 31.2
11:10 1016 30 845 24.95 19.9 67.8 25 -0.3 31.4
11:15 1016 30 845 24.95 19.6 67.3 26 -0.5 31.2
11:20 1016 30 845 24.95 19 66.1 26 -0.6 30.8
11:25 1016 30 845 24.95 19.8 67.6 25 -0.9 30.3
11:30 1016 30 845 24.95 20.7 69.2 24 -0.5 31.1
11:35 1016 30 845 24.95 20.6 69.1 27 1.4 34.4
11:40 1015 29.97 845 24.95 20.6 69.1 26 0.6 33.1
11:45 1015 29.97 845 24.95 20.9 69.5 24 -0.2 31.7
11:50 1015 29.97 845 24.95 20.9 69.6 25 0.4 32.8
11:55 1015 29.97 845 24.95 21.1 69.9 25 0.6 33.2
12:00 1015 29.97 845 24.95 20.7 69.2 26 0.9 33.6
12:05 1015 29.97 845 24.95 20.4 68.7 26 0.6 33
12:10 1015 29.97 844 24.92 20.4 68.8 27 0.8 33.4
12:15 1015 29.97 844 24.92 20.4 68.6 26 0.6 33.1
12:20 1015 29.97 844 24.92 20.3 68.6 25 -0.2 31.6
12:25 1015 29.97 844 24.92 20.7 69.2 25 -0.1 31.8
12:30 1015 29.97 844 24.92 21.3 70.4 23 -0.5 31.1
12:35 1015 29.97 844 24.92 22 71.6 24 0.6 33.1
12:40 1015 29.97 844 24.92 21.7 71.1 25 0.9 33.5
12:45 1015 29.97 844 24.92 21 69.8 26 0.7 33.2
12:50 1015 29.97 844 24.92 20.9 69.6 24 -0.1 31.9
12:55 1015 29.97 844 24.92 20.6 69.1 26 0.6 33
13:00 1015 29.97 844 24.92 20.1 68.2 27 0.8 33.5
13:05 1015 29.97 844 24.92 19.9 67.9 27 0.5 32.9
13:10 1015 29.97 844 24.92 20.2 68.3 27 0.6 33
13:15 1015 29.97 844 24.92 20.4 68.8 26 0.4 32.6
13:20 1014 29.94 844 24.92 20.7 69.2 25 0.3 32.5
13:25 1014 29.94 844 24.92 21.1 70 25 0.3 32.6
13:30 1014 29.94 844 24.92 21.7 71 24 0.2 32.3
13:35 1014 29.94 843 24.89 22.4 72.3 22 0.1 32.1
13:40 1014 29.94 843 24.89 22.2 72 23 0 32.1
13:45 1014 29.94 843 24.89 22.2 71.9 22 -0.6 30.9
13:50 1014 29.94 843 24.89 22.6 72.7 22 -0 32
13:55 1014 29.94 843 24.89 23 73.3 21 -0.4 31.2
14:00 1014 29.94 843 24.89 22.4 72.3 22 0.1 32.3
14:05 1014 29.94 843 24.89 21.2 70.2 27 1.7 35.1
14:10 1014 29.94 843 24.89 20.2 68.3 29 1.7 35.1
14:15 1014 29.94 843 24.89 20.2 68.3 30 2.5 36.4
14:20 1014 29.94 843 24.89 20.5 68.9 26 0.6 33.1
14:25 1014 29.94 843 24.89 21.1 70 26 1 33.8
14:30 1014 29.94 843 24.89 21.4 70.5 25 0.8 33.4
14:35 1014 29.94 843 24.89 21.1 69.9 27 1.7 35.1
14:40 1014 29.94 843 24.89 21 69.7 25 0.5 32.9
14:45 1014 29.94 843 24.89 22.2 71.9 24 0.6 33.2
14:50 1014 29.94 843 24.89 21.7 71 27 1.8 35.3
14:55 1014 29.94 843 24.89 20.7 69.3 28 1.8 35.2
15:00 1014 29.94 843 24.89 20.4 68.7 21 -2.5 27.4
15:05 1014 29.94 843 24.89 20.9 69.5 23 -0.9 30.4
15:10 1013 29.91 842 24.86 20.9 69.6 22 -1.1 30
15:15 1013 29.91 842 24.86 20.9 69.5 22 -1.4 29.5
15:20 1013 29.91 842 24.86 21 69.8 23 -0.6 30.9
15:25 1013 29.91 842 24.86 21.3 70.3 24 -0.1 31.8
15:30 1013 29.91 842 24.86 21.4 70.4 22 -1.3 29.7
15:35 1013 29.91 843 24.89 21.4 70.4 23 -0.6 31
15:40 1013 29.91 842 24.86 21.4 70.4 23 -0.2 31.7
15:45 1013 29.91 842 24.86 21.5 70.7 22 -1.1 30
15:50 1013 29.91 842 24.86 21.8 71.3 20 -2.2 28.1
15:55 1013 29.91 842 24.86 23 73.4 19 -1.6 29.1
16:00 1013 29.91 842 24.86 22.9 73.3 18 -2.5 27.5
16:05 1013 29.91 842 24.86 22.2 72 19 -2.2 28.1
16:10 1013 29.91 842 24.86 21.8 71.3 20 -2.2 28.1
16:15 1013 29.91 843 24.89 21.7 71.1 21 -1.2 29.9
16:20 1013 29.91 843 24.89 21.5 70.7 22 -0.8 30.6
16:25 1013 29.91 843 24.89 21.3 70.3 24 -0.2 31.7
16:30 1013 29.91 843 24.89 21 69.8 23 -0.5 31.1
16:35 1013 29.91 843 24.89 20.9 69.7 21 -2.2 28
16:40 1013 29.91 843 24.89 20.8 69.4 23 -1.2 29.9
16:45 1014 29.94 843 24.89 21 69.8 23 -0.9 30.3
16:50 1014 29.94 843 24.89 21.1 69.9 21 -1.8 28.7
16:55 1014 29.94 843 24.89 21.4 70.5 22 -0.7 30.7
17:00 1014 29.94 843 24.89 20.9 69.5 25 0.3 32.5
17:05 1014 29.94 843 24.89 20.6 69.1 26 0.4 32.8
17:10 1014 29.94 843 24.89 20.4 68.8 28 1.7 35.1
17:15 1014 29.94 843 24.89 20.3 68.5 26 0.1 32.2
17:20 1014 29.94 843 24.89 20.1 68.1 28 1 33.8
17:25 1014 29.94 843 24.89 20.1 68.1 30 2.1 35.7
17:30 1014 29.94 843 24.89 20.1 68.1 29 1.6 34.9
17:35 1014 29.94 843 24.89 20.2 68.4 26 0.5 32.9
17:40 1014 29.94 843 24.89 20.5 68.9 28 1.3 34.4
17:45 1014 29.94 843 24.89 20.5 68.9 27 1 33.9
17:50 1014 29.94 843 24.89 20.1 68.2 27 0.9 33.5
17:55 1013 29.91 843 24.89 19.7 67.5 29 1.1 34
18:00 1013 29.91 843 24.89 19.5 67.1 28 0.5 32.8
18:05 1013 29.91 843 24.89 19.5 67.1 27 0.4 32.7
18:10 1013 29.91 843 24.89 19.5 67.1 28 0.6 33.1
18:15 1013 29.91 843 24.89 19.2 66.6 28 0.5 32.9
18:20 1013 29.91 843 24.89 19.1 66.4 27 -0.2 31.6
18:25 1013 29.91 843 24.89 19.2 66.5 28 0.2 32.3
18:30 1014 29.94 843 24.89 19 66.2 28 0.4 32.8
18:35 1014 29.94 843 24.89 18.8 65.8 29 0.4 32.7
18:40 1014 29.94 843 24.89 18.6 65.6 29 0.4 32.7
18:45 1013 29.91 843 24.89 18.6 65.5 28 0 32.1
18:50 1013 29.91 842 24.86 18.6 65.4 29 0.3 32.6
18:55 1013 29.91 843 24.89 18.5 65.2 29 0.4 32.7
19:00 1013 29.91 843 24.89 18.4 65 31 1.1 33.9
19:05 1014 29.94 843 24.89 18.2 64.8 31 1 33.9
19:10 1014 29.94 843 24.89 17.8 64 32 1.1 34
19:15 1014 29.94 843 24.89 17.6 63.6 31 0.6 33
19:20 1014 29.94 843 24.89 17.6 63.7 32 0.9 33.6
19:25 1014 29.94 843 24.89 17.6 63.6 32 0.8 33.4
19:30 1014 29.94 843 24.89 17.7 63.8 31 0.6 33.1
19:35 1014 29.94 843 24.89 17.8 64 30 0.2 32.3
19:40 1014 29.94 843 24.89 18.1 64.5 29 -0.3 31.4
19:45 1014 29.94 843 24.89 18.1 64.6 32 1.3 34.4
19:50 1014 29.94 844 24.92 17.4 63.4 32 0.7 33.3
19:55 1014 29.94 844 24.92 17.4 63.3 32 0.8 33.5
20:00 1014 29.94 844 24.92 17.6 63.6 31 0.3 32.5
20:05 1014 29.94 844 24.92 17.8 64.1 36 2.6 36.7
20:10 1014 29.94 844 24.92 17.7 63.9 30 -0 32
20:15 1014 29.94 844 24.92 17.9 64.2 30 0 32
20:20 1014 29.94 843 24.89 17.9 64.2 31 0.6 33.1
20:25 1014 29.94 843 24.89 17.4 63.3 31 0.2 32.3
20:30 1014 29.94 843 24.89 17.3 63.1 31 0 32
20:35 1014 29.94 843 24.89 17.5 63.4 30 -0.1 31.9
20:40 1014 29.94 843 24.89 17.5 63.4 30 -0.1 31.9
20:45 1014 29.94 843 24.89 17.3 63.2 31 -0 32
20:50 1014 29.94 843 24.89 17.3 63.1 31 0 32
20:55 1014 29.94 843 24.89 17.1 62.9 32 0.4 32.7
21:00 1014 29.94 843 24.89 16.8 62.2 32 0.3 32.6
21:05 1014 29.94 844 24.92 16.8 62.2 33 0.5 32.9
21:10 1014 29.94 844 24.92 16.5 61.8 34 0.6 33.1
21:15 1014 29.94 844 24.92 16.2 61.2 35 0.9 33.6
21:20 1014 29.94 844 24.92 16 60.7 36 0.9 33.6
21:25 1014 29.94 844 24.92 16.1 61.1 34 0.3 32.6
21:30 1014 29.94 844 24.92 16.6 61.9 35 1 33.8
21:35 1015 29.97 844 24.92 16.8 62.2 32 0 32
21:40 1015 29.97 844 24.92 17.2 62.9 32 0.4 32.7
21:45 1015 29.97 844 24.92 17.3 63.2 32 0.6 33
21:50 1015 29.97 844 24.92 17 62.7 44 4.7 40.5
21:55 1015 29.97 844 24.92 16.1 60.9 42 3.2 37.8
22:00 1015 29.97 844 24.92 16.1 60.9 39 2.2 36
22:05 1015 29.97 844 24.92 16.3 61.4 41 3.1 37.7
22:10 1015 29.97 844 24.92 16.1 61 44 3.8 38.9
22:15 1015 29.97 844 24.92 15.6 60 49 4.9 40.8
22:20 1015 29.97 845 24.95 14.8 58.6 54 5.6 42.1
22:25 1016 30 845 24.95 14.1 57.4 56 5.7 42.2
22:30 1016 30 845 24.95 13.6 56.5 60 5.9 42.7
22:35 1016 30 845 24.95 13.2 55.7 59 5.5 41.9
22:40 1016 30 846 24.98 13.2 55.8 59 5.6 42
22:45 1017 30.03 846 24.98 13.3 55.9 60 5.7 42.2
22:50 1017 30.03 846 24.98 13.2 55.8 62 6.1 43
22:55 1017 30.03 846 24.98 12.8 55 67 6.9 44.5
23:00 1017 30.03 846 24.98 12.5 54.6 70 7.2 45
23:05 1016 30 846 24.98 12.4 54.3 72 7.5 45.4
23:10 1016 30 845 24.95 12 53.6 74 7.6 45.6
23:15 1016 30 845 24.95 11.8 53.2 74 7.4 45.3
23:20 1016 30 845 24.95 11.5 52.6 77 7.6 45.6
23:25 1015 29.97 845 24.95 11.3 52.3 78 7.5 45.5
23:30 1015 29.97 845 24.95 11.1 52 77 7.3 45.1
23:35 1015 29.97 845 24.95 11.2 52.1 77 7.3 45.1
23:40 1015 29.97 845 24.95 11.2 52.1 78 7.5 45.4
23:45 1015 29.97 845 24.95 10.9 51.5 79 7.4 45.4
23:50 1016 30 845 24.95 10.8 51.4 79 7.3 45.2
23:55 1015 29.97 845 24.95 10.8 51.5 77 7 44.6
24:00 1016 30 845 24.95 10.9 51.7 77 7 44.6